Time,TemperatureF,DewpointF,PressureIn,WindDirection,WindDirectionDegrees,WindSpeedMPH,WindSpeedGustMPH,Humidity,HourlyPrecipIn,Conditions,Clouds,dailyrainin,SoftwareType,DateUTC
2013-01-28 00:03:00,42.6,33.0,30.42,NNE,32,1.0,7.0,68,0.00,,,0.00,weatherlink.com 1.10,2013-01-28 05:03:00,
2013-01-28 00:19:00,42.5,33.0,30.41,ENE,76,5.0,7.0,68,0.00,,,0.00,weatherlink.com 1.10,2013-01-28 05:19:00,
2013-01-28 00:35:00,42.4,32.0,30.41,East,96,2.0,6.0,68,0.00,,,0.00,weatherlink.com 1.10,2013-01-28 05:35:00,
2013-01-28 00:51:00,42.4,32.0,30.42,NNE,12,1.0,6.0,68,0.00,,,0.00,weatherlink.com 1.10,2013-01-28 05:51:00,
2013-01-28 01:00:00,41.9,32.1,30.41,ESE,105,2.0,7.0,68,0.00,,---,0.00,VWS V14.01,2013-01-28 06:00:00,
2013-01-28 01:09:00,42.3,32.0,30.42,NE,36,2.0,6.0,68,0.00,,,0.00,weatherlink.com 1.10,2013-01-28 06:09:00,
2013-01-28 01:25:00,42.2,32.0,30.41,ESE,103,1.0,6.0,68,0.00,,,0.00,weatherlink.com 1.10,2013-01-28 06:25:00,
2013-01-28 01:41:00,42.0,32.0,30.40,NE,41,2.0,7.0,68,0.00,,,0.00,weatherlink.com 1.10,2013-01-28 06:41:00,
2013-01-28 01:57:00,41.9,32.0,30.41,NE,40,1.0,4.0,68,0.00,,,0.00,weatherlink.com 1.10,2013-01-28 06:57:00,
2013-01-28 02:14:00,42.0,32.0,30.42,NNE,23,0.0,4.0,68,0.00,,,0.00,weatherlink.com 1.10,2013-01-28 07:14:00,
2013-01-28 02:31:00,42.2,32.0,30.42,NNE,17,3.0,4.0,68,0.00,,,0.00,weatherlink.com 1.10,2013-01-28 07:31:00,
2013-01-28 02:47:00,42.3,32.0,30.43,North,360,0.0,5.0,68,0.00,,,0.00,weatherlink.com 1.10,2013-01-28 07:47:00,
2013-01-28 03:00:00,42.2,32.8,30.41,NNE,25,2.0,7.0,69,0.00,,---,0.00,VWS V14.01,2013-01-28 08:00:00,
2013-01-28 03:04:00,42.3,32.0,30.42,ENE,71,2.0,4.0,68,0.00,,,0.00,weatherlink.com 1.10,2013-01-28 08:04:00,
2013-01-28 03:20:00,42.3,32.0,30.42,ENE,58,0.0,3.0,68,0.00,,,0.00,weatherlink.com 1.10,2013-01-28 08:20:00,
2013-01-28 03:36:00,42.3,32.0,30.41,ENE,78,0.0,5.0,68,0.00,,,0.00,weatherlink.com 1.10,2013-01-28 08:36:00,
2013-01-28 03:53:00,42.3,33.0,30.41,NE,47,0.0,4.0,69,0.00,,,0.00,weatherlink.com 1.10,2013-01-28 08:53:00,
2013-01-28 04:09:00,42.2,33.0,30.40,ENE,69,0.0,3.0,69,0.00,,,0.00,weatherlink.com 1.10,2013-01-28 09:09:00,
2013-01-28 04:26:00,42.3,32.0,30.39,NNE,14,2.0,8.0,68,0.00,,,0.00,weatherlink.com 1.10,2013-01-28 09:26:00,
2013-01-28 04:42:00,42.3,32.0,30.40,NNE,17,1.0,4.0,68,0.00,,,0.00,weatherlink.com 1.10,2013-01-28 09:42:00,
2013-01-28 04:58:00,42.3,32.0,30.40,NE,41,2.0,4.0,68,0.00,,,0.00,weatherlink.com 1.10,2013-01-28 09:58:00,
2013-01-28 05:00:00,42.3,32.9,30.41,NNE,13,2.0,7.0,69,0.00,,---,0.00,VWS V14.01,2013-01-28 10:00:00,
2013-01-28 05:15:00,42.3,32.0,30.40,NE,42,0.0,3.0,68,0.00,,,0.00,weatherlink.com 1.10,2013-01-28 10:15:00,
2013-01-28 05:31:00,42.3,33.0,30.40,NNE,26,0.0,4.0,69,0.00,,,0.00,weatherlink.com 1.10,2013-01-28 10:31:00,
2013-01-28 05:48:00,42.4,33.0,30.41,NE,49,0.0,4.0,69,0.00,,,0.00,weatherlink.com 1.10,2013-01-28 10:48:00,
2013-01-28 06:04:00,42.4,33.0,30.41,East,101,2.0,4.0,69,0.00,,,0.00,weatherlink.com 1.10,2013-01-28 11:04:00,
2013-01-28 06:20:00,42.3,33.0,30.40,NE,53,3.0,5.0,70,0.00,,,0.00,weatherlink.com 1.10,2013-01-28 11:20:00,
2013-01-28 06:37:00,42.3,34.0,30.40,NE,51,0.0,6.0,71,0.00,,,0.00,weatherlink.com 1.10,2013-01-28 11:37:00,
2013-01-28 06:54:00,41.9,35.0,30.40,East,99,1.0,4.0,75,0.00,,,0.00,weatherlink.com 1.10,2013-01-28 11:54:00,
2013-01-28 07:00:00,41.7,35.0,30.41,ENE,78,0.0,5.0,77,0.00,,---,0.00,VWS V14.01,2013-01-28 12:00:00,
2013-01-28 07:10:00,41.7,34.0,30.41,NE,43,1.0,4.0,75,0.00,,,0.00,weatherlink.com 1.10,2013-01-28 12:10:00,
2013-01-28 07:26:00,41.6,35.0,30.41,North,355,0.0,3.0,76,0.00,,,0.00,weatherlink.com 1.10,2013-01-28 12:26:00,
2013-01-28 07:43:00,41.6,35.0,30.41,North,5,2.0,2.0,77,0.00,,,0.00,weatherlink.com 1.10,2013-01-28 12:43:00,
2013-01-28 07:59:00,41.7,35.0,30.41,ENE,78,0.0,3.0,76,0.00,,,0.00,weatherlink.com 1.10,2013-01-28 12:59:00,
2013-01-28 08:16:00,41.9,35.0,30.41,NE,38,1.0,2.0,76,0.00,,,0.00,weatherlink.com 1.10,2013-01-28 13:16:00,
2013-01-28 08:33:00,42.0,34.0,30.42,NE,53,1.0,3.0,74,0.00,,,0.00,weatherlink.com 1.10,2013-01-28 13:33:00,
2013-01-28 08:49:00,42.3,35.0,30.42,NE,49,0.0,3.0,74,0.00,,,0.00,weatherlink.com 1.10,2013-01-28 13:49:00,
2013-01-28 09:00:00,43.7,35.3,30.41,ESE,119,2.0,5.0,72,0.00,,---,0.00,VWS V14.01,2013-01-28 14:00:00,
2013-01-28 09:05:00,42.5,34.0,30.41,East,92,0.0,3.0,73,0.00,,,0.00,weatherlink.com 1.10,2013-01-28 14:05:00,
2013-01-28 09:21:00,42.7,34.0,30.42,ENE,71,0.0,3.0,72,0.00,,,0.00,weatherlink.com 1.10,2013-01-28 14:21:00,
2013-01-28 09:37:00,43.1,34.0,30.41,ESE,111,2.0,4.0,71,0.00,,,0.00,weatherlink.com 1.10,2013-01-28 14:37:00,
2013-01-28 09:55:00,43.6,35.0,30.41,East,92,1.0,3.0,72,0.00,,,0.00,weatherlink.com 1.10,2013-01-28 14:55:00,
2013-01-28 10:11:00,43.8,35.0,30.41,East,91,0.0,4.0,71,0.00,,,0.00,weatherlink.com 1.10,2013-01-28 15:11:00,
2013-01-28 10:27:00,44.2,36.0,30.41,SE,135,2.0,5.0,73,0.00,,,0.00,weatherlink.com 1.10,2013-01-28 15:27:00,
2013-01-28 10:43:00,44.3,35.0,30.41,East,96,2.0,4.0,71,0.00,,,0.00,weatherlink.com 1.10,2013-01-28 15:43:00,
2013-01-28 11:00:00,44.4,37.0,30.41,ENE,71,2.0,6.0,74,0.00,,,0.00,weatherlink.com 1.10,2013-01-28 16:00:00,
2013-01-28 11:17:00,44.9,37.0,30.41,NNE,28,3.0,6.0,75,0.00,,,0.00,weatherlink.com 1.10,2013-01-28 16:17:00,
2013-01-28 11:33:00,45.1,37.0,30.41,East,87,2.0,6.0,74,0.00,,,0.00,weatherlink.com 1.10,2013-01-28 16:33:00,
2013-01-28 11:49:00,45.9,38.0,30.39,ENE,65,3.0,4.0,74,0.00,,,0.00,weatherlink.com 1.10,2013-01-28 16:49:00,
2013-01-28 12:06:00,45.8,38.0,30.38,ESE,115,3.0,5.0,75,0.00,,,0.00,weatherlink.com 1.10,2013-01-28 17:06:00,
2013-01-28 12:23:00,46.2,38.0,30.37,NE,45,0.0,3.0,74,0.00,,,0.00,weatherlink.com 1.10,2013-01-28 17:23:00,
2013-01-28 12:39:00,46.9,39.0,30.36,ENE,78,2.0,6.0,73,0.00,,,0.00,weatherlink.com 1.10,2013-01-28 17:39:00,
2013-01-28 12:56:00,47.1,39.0,30.36,NNE,32,1.0,5.0,74,0.00,,,0.00,weatherlink.com 1.10,2013-01-28 17:56:00,
2013-01-28 13:00:00,49.0,41.4,30.32,ENE,71,2.0,5.0,75,0.00,,---,0.00,VWS V14.01,2013-01-28 18:00:00,
2013-01-28 13:12:00,47.6,39.0,30.35,North,360,2.0,5.0,73,0.00,,,0.00,weatherlink.com 1.10,2013-01-28 18:12:00,
2013-01-28 13:28:00,48.5,41.0,30.33,ESE,111,1.0,5.0,75,0.00,,,0.00,weatherlink.com 1.10,2013-01-28 18:28:00,
2013-01-28 13:45:00,48.7,41.0,30.33,ESE,103,2.0,3.0,74,0.00,,,0.00,weatherlink.com 1.10,2013-01-28 18:45:00,
2013-01-28 14:01:00,49.0,41.0,30.32,ENE,73,2.0,4.0,75,0.00,,,0.00,weatherlink.com 1.10,2013-01-28 19:01:00,
2013-01-28 14:18:00,49.3,42.0,30.30,SE,145,3.0,5.0,75,0.00,,,0.00,weatherlink.com 1.10,2013-01-28 19:18:00,
2013-01-28 14:34:00,49.7,42.0,30.30,SE,128,1.0,4.0,76,0.00,,,0.00,weatherlink.com 1.10,2013-01-28 19:34:00,
2013-01-28 14:50:00,49.6,42.0,30.30,ENE,60,1.0,3.0,75,0.00,,,0.00,weatherlink.com 1.10,2013-01-28 19:50:00,
2013-01-28 15:00:00,50.6,43.7,30.30,South,184,0.0,5.0,77,0.00,,---,0.00,VWS V14.01,2013-01-28 20:00:00,
2013-01-28 15:06:00,49.7,43.0,30.29,ENE,72,0.0,2.0,77,0.00,,,0.00,weatherlink.com 1.10,2013-01-28 20:06:00,
2013-01-28 15:23:00,50.0,43.0,30.30,ESE,112,0.0,1.0,77,0.00,,,0.00,weatherlink.com 1.10,2013-01-28 20:23:00,
2013-01-28 15:39:00,50.3,43.0,30.30,ESE,112,0.0,2.0,77,0.00,,,0.00,weatherlink.com 1.10,2013-01-28 20:39:00,
2013-01-28 15:57:00,50.6,44.0,30.30,South,182,0.0,2.0,77,0.00,,,0.00,weatherlink.com 1.10,2013-01-28 20:57:00,
2013-01-28 16:13:00,50.8,44.0,30.30,South,183,0.0,1.0,77,0.00,,,0.00,weatherlink.com 1.10,2013-01-28 21:13:00,
2013-01-28 16:29:00,51.0,44.0,30.29,SSE,161,2.0,3.0,77,0.00,,,0.00,weatherlink.com 1.10,2013-01-28 21:29:00,
2013-01-28 16:45:00,50.9,44.0,30.29,SSE,157,0.0,2.0,77,0.00,,,0.00,weatherlink.com 1.10,2013-01-28 21:45:00,
2013-01-28 17:00:00,50.2,46.2,30.29,SW,225,0.0,4.0,86,0.00,,---,0.00,VWS V14.01,2013-01-28 22:00:00,
2013-01-28 17:02:00,50.9,45.0,30.29,SSE,161,1.0,2.0,79,0.00,,,0.00,weatherlink.com 1.10,2013-01-28 22:02:00,
2013-01-28 17:18:00,50.9,45.0,30.29,South,169,2.0,4.0,80,0.00,,,0.00,weatherlink.com 1.10,2013-01-28 22:18:00,
2013-01-28 17:35:00,50.5,46.0,30.29,SSE,149,1.0,5.0,83,0.00,,,0.00,weatherlink.com 1.10,2013-01-28 22:35:00,
2013-01-28 17:52:00,50.3,46.0,30.29,SW,220,0.0,3.0,85,0.00,,,0.00,weatherlink.com 1.10,2013-01-28 22:52:00,
2013-01-28 18:08:00,50.1,46.0,30.29,SW,225,0.0,0.0,86,0.00,,,0.00,weatherlink.com 1.10,2013-01-28 23:08:00,
2013-01-28 18:24:00,50.0,46.0,30.29,SW,225,0.0,0.0,86,0.00,,,0.00,weatherlink.com 1.10,2013-01-28 23:24:00,
2013-01-28 18:40:00,50.0,46.0,30.29,SW,224,0.0,0.0,86,0.00,,,0.00,weatherlink.com 1.10,2013-01-28 23:40:00,
2013-01-28 18:57:00,49.7,46.0,30.30,SW,225,0.0,0.0,86,0.00,,,0.00,weatherlink.com 1.10,2013-01-28 23:57:00,
2013-01-28 19:00:00,47.4,43.7,30.29,SW,225,0.0,0.0,87,0.00,,---,0.00,VWS V14.01,2013-01-29 00:00:00,
2013-01-28 19:13:00,49.1,45.0,30.30,SW,224,0.0,0.0,87,0.00,,,0.00,weatherlink.com 1.10,2013-01-29 00:13:00,
2013-01-28 19:30:00,48.5,45.0,30.29,SW,225,0.0,0.0,87,0.00,,,0.00,weatherlink.com 1.10,2013-01-29 00:30:00,
2013-01-28 19:46:00,47.9,44.0,30.29,SW,225,0.0,0.0,86,0.00,,,0.00,weatherlink.com 1.10,2013-01-29 00:46:00,
2013-01-28 20:02:00,47.4,44.0,30.29,SW,225,0.0,0.0,87,0.00,,,0.00,weatherlink.com 1.10,2013-01-29 01:02:00,
2013-01-28 20:19:00,46.7,43.0,30.29,SW,225,0.0,0.0,88,0.00,,,0.00,weatherlink.com 1.10,2013-01-29 01:19:00,
2013-01-28 20:35:00,46.3,44.0,30.29,SW,225,0.0,0.0,90,0.00,,,0.00,weatherlink.com 1.10,2013-01-29 01:35:00,
2013-01-28 20:52:00,46.1,43.0,30.29,SW,224,0.0,0.0,90,0.00,,,0.00,weatherlink.com 1.10,2013-01-29 01:52:00,
2013-01-28 21:00:00,44.7,42.2,30.28,SW,225,0.0,0.0,91,0.00,,---,0.00,VWS V14.01,2013-01-29 02:00:00,
2013-01-28 21:08:00,45.9,44.0,30.29,SW,225,0.0,0.0,91,0.00,,,0.00,weatherlink.com 1.10,2013-01-29 02:08:00,
2013-01-28 21:24:00,45.6,43.0,30.29,SW,225,0.0,0.0,90,0.00,,,0.00,weatherlink.com 1.10,2013-01-29 02:24:00,
2013-01-28 21:41:00,45.1,43.0,30.29,SW,225,0.0,0.0,91,0.00,,,0.00,weatherlink.com 1.10,2013-01-29 02:41:00,
2013-01-28 21:57:00,44.7,42.0,30.29,SW,224,0.0,0.0,91,0.00,,,0.00,weatherlink.com 1.10,2013-01-29 02:57:00,
2013-01-28 22:14:00,44.5,42.0,30.28,SW,225,0.0,0.0,92,0.00,,,0.00,weatherlink.com 1.10,2013-01-29 03:14:00,
2013-01-28 22:30:00,44.2,42.0,30.28,SW,225,0.0,0.0,92,0.00,,,0.00,weatherlink.com 1.10,2013-01-29 03:30:00,
2013-01-28 22:47:00,44.3,43.0,30.27,SW,224,0.0,0.0,94,0.00,,,0.00,weatherlink.com 1.10,2013-01-29 03:47:00,
2013-01-28 23:00:00,44.6,43.3,30.27,SW,225,0.0,0.0,95,0.00,,---,0.00,VWS V14.01,2013-01-29 04:00:00,
2013-01-28 23:03:00,44.6,43.0,30.27,SW,225,0.0,0.0,95,0.00,,,0.00,weatherlink.com 1.10,2013-01-29 04:03:00,
2013-01-28 23:19:00,44.8,44.0,30.27,SW,225,0.0,0.0,95,0.00,,,0.00,weatherlink.com 1.10,2013-01-29 04:19:00,
2013-01-28 23:36:00,44.8,44.0,30.27,SW,225,0.0,0.0,95,0.00,,,0.00,weatherlink.com 1.10,2013-01-29 04:36:00,
2013-01-28 23:53:00,44.7,43.0,30.27,SW,225,0.0,0.0,95,0.00,,,0.00,weatherlink.com 1.10,2013-01-29 04:53:00,